Time;durP1;ratioP1;P1;durP2;ratioP2;P2;SDS_P1;SDS_P2;PMS_P1;PMS_P2;Temp;Humidity;BMP_temperature;BMP_pressure;BME280_temperature;BME280_humidity;BME280_pressure;Samples;Min_cycle;Max_cycle;Signal;HPM_P1;HPM_P2
2023/01/19 00:01:20;;;;;;;15.00;13.50;;;1.10;99.90;;;;;;5069843;28;20478;-71
2023/01/19 00:03:47;;;;;;;15.77;13.47;;;1.20;99.90;;;;;;5078517;28;20561;-72
2023/01/19 00:06:14;;;;;;;17.13;14.60;;;1.20;99.90;;;;;;5067339;28;21137;-70
2023/01/19 00:08:44;;;;;;;19.50;15.43;;;1.20;99.90;;;;;;5069029;28;20474;-72
2023/01/19 00:11:11;;;;;;;17.00;14.63;;;1.20;99.90;;;;;;5066978;28;21045;-72
2023/01/19 00:13:39;;;;;;;17.47;15.63;;;1.20;99.90;;;;;;5076069;28;20462;-70
2023/01/19 00:16:07;;;;;;;16.70;15.10;;;1.20;99.90;;;;;;5067442;28;20481;-69
2023/01/19 00:18:34;;;;;;;16.60;14.93;;;1.10;99.90;;;;;;5081597;28;20470;-70
2023/01/19 00:21:01;;;;;;;19.50;15.87;;;1.10;99.90;;;;;;5067586;28;21057;-72
2023/01/19 00:23:27;;;;;;;18.37;15.30;;;1.10;99.90;;;;;;5070518;28;20465;-69
2023/01/19 00:25:56;;;;;;;20.57;15.53;;;1.10;99.90;;;;;;5074087;28;20465;-69
2023/01/19 00:28:22;;;;;;;20.03;16.43;;;1.10;99.90;;;;;;5071083;28;20461;-71
2023/01/19 00:30:51;;;;;;;20.00;15.53;;;1.10;99.90;;;;;;5075110;28;20967;-72
2023/01/19 00:33:18;;;;;;;18.37;16.30;;;1.20;99.90;;;;;;5071797;28;20459;-69
2023/01/19 00:35:45;;;;;;;16.27;14.43;;;1.10;99.90;;;;;;5067225;28;20852;-71
2023/01/19 00:38:12;;;;;;;18.43;16.67;;;1.10;99.90;;;;;;5067607;28;20498;-69
2023/01/19 00:40:39;;;;;;;18.30;15.90;;;1.10;99.90;;;;;;5070867;28;20489;-72
2023/01/19 00:43:07;;;;;;;18.63;16.43;;;1.10;99.90;;;;;;5066657;28;20467;-72
2023/01/19 00:45:34;;;;;;;21.27;16.33;;;1.10;99.90;;;;;;5075004;28;20459;-71
2023/01/19 00:48:02;;;;;;;18.00;15.73;;;1.10;99.90;;;;;;5068888;28;20493;-69
2023/01/19 00:50:30;;;;;;;18.20;16.30;;;1.20;99.90;;;;;;5071172;28;20544;-73
2023/01/19 00:52:59;;;;;;;14.37;12.90;;;1.20;99.90;;;;;;5072423;28;20467;-72
2023/01/19 00:55:27;;;;;;;20.23;15.67;;;1.10;99.90;;;;;;5073588;28;20506;-70
2023/01/19 00:57:54;;;;;;;18.00;16.13;;;1.10;99.90;;;;;;5073205;28;20496;-70
2023/01/19 01:00:24;;;;;;;13.67;12.37;;;1.10;99.90;;;;;;5075589;28;20466;-70
2023/01/19 01:02:52;;;;;;;19.73;15.37;;;1.10;99.90;;;;;;5075185;28;20483;-70
2023/01/19 01:05:19;;;;;;;16.73;14.93;;;1.10;99.90;;;;;;5075764;28;20546;-71
2023/01/19 01:07:48;;;;;;;17.67;15.70;;;1.20;99.90;;;;;;5069050;28;20504;-70
2023/01/19 01:10:17;;;;;;;19.40;14.67;;;1.20;99.90;;;;;;5069569;28;20544;-72
2023/01/19 01:12:45;;;;;;;19.20;15.20;;;1.20;99.90;;;;;;5069727;28;20804;-70
2023/01/19 01:15:13;;;;;;;19.33;15.87;;;1.20;99.90;;;;;;5068992;28;20529;-71
2023/01/19 01:17:46;;;;;;;15.87;14.07;;;1.20;99.90;;;;;;5070860;28;20493;-73
2023/01/19 01:20:18;;;;;;;18.80;16.80;;;1.20;99.90;;;;;;5076469;28;20469;-70
2023/01/19 01:22:46;;;;;;;16.13;14.63;;;1.20;99.90;;;;;;5073473;28;20461;-72
2023/01/19 01:25:14;;;;;;;18.70;15.77;;;1.20;99.90;;;;;;5072110;28;20475;-70
2023/01/19 01:27:42;;;;;;;17.27;15.00;;;1.20;99.90;;;;;;5064470;28;20990;-71
2023/01/19 01:30:11;;;;;;;17.00;14.40;;;1.20;99.90;;;;;;5071929;28;20562;-72
2023/01/19 01:32:38;;;;;;;15.77;14.07;;;1.10;99.90;;;;;;5065020;28;20458;-71
2023/01/19 01:35:07;;;;;;;18.27;15.67;;;1.10;99.90;;;;;;5072561;28;20459;-72
2023/01/19 01:37:34;;;;;;;17.60;15.80;;;1.10;99.90;;;;;;5072276;28;20494;-72
2023/01/19 01:40:01;;;;;;;9.87;9.17;;;1.20;99.90;;;;;;5072241;28;20490;-71
2023/01/19 01:42:30;;;;;;;17.23;15.43;;;1.10;99.90;;;;;;5074600;28;20834;-70
2023/01/19 01:44:59;;;;;;;22.07;16.67;;;1.10;99.90;;;;;;5068644;28;20474;-71
2023/01/19 01:47:32;;;;;;;19.77;16.50;;;1.10;99.90;;;;;;5075368;28;20617;-71
2023/01/19 01:50:08;;;;;;;18.43;16.30;;;1.10;99.90;;;;;;5068372;28;20454;-72
2023/01/19 01:52:39;;;;;;;21.40;16.70;;;1.10;99.90;;;;;;5068777;28;20462;-70
2023/01/19 01:55:07;;;;;;;20.10;16.33;;;1.10;99.90;;;;;;5073334;28;20494;-71
2023/01/19 01:57:36;;;;;;;15.10;13.70;;;1.10;99.90;;;;;;5071890;28;21025;-69
2023/01/19 02:00:06;;;;;;;17.37;13.40;;;1.10;99.90;;;;;;5063915;28;21305;-71
2023/01/19 02:02:53;;;;;;;19.43;16.53;;;1.10;99.90;;;;;;5068585;28;20830;-69
2023/01/19 02:05:26;;;;;;;19.27;16.10;;;1.10;99.90;;;;;;5075461;28;20467;-70
2023/01/19 02:13:30;;;;;;;21.43;15.97;;;1.10;99.90;;;;;;5066342;28;20486;-70
2023/01/19 02:15:59;;;;;;;19.73;15.93;;;1.10;99.90;;;;;;5071180;28;20944;-71
2023/01/19 02:18:28;;;;;;;17.90;14.97;;;1.10;99.90;;;;;;5070960;28;20628;-69
2023/01/19 02:21:03;;;;;;;18.03;16.07;;;1.20;99.90;;;;;;5070954;28;20467;-69
2023/01/19 02:23:42;;;;;;;18.30;15.67;;;1.10;99.90;;;;;;5073568;28;20462;-72
2023/01/19 02:26:12;;;;;;;16.17;14.43;;;1.10;99.90;;;;;;5072764;28;20537;-70
2023/01/19 02:28:42;;;;;;;16.97;15.17;;;1.10;99.90;;;;;;5064115;28;20478;-72
2023/01/19 02:31:09;;;;;;;13.67;11.97;;;1.10;99.90;;;;;;5061132;28;20467;-69
2023/01/19 02:33:36;;;;;;;15.90;14.40;;;1.20;99.90;;;;;;5073487;28;20460;-73
2023/01/19 02:36:04;;;;;;;20.63;13.50;;;1.20;99.90;;;;;;5068578;28;21192;-70
2023/01/19 02:38:32;;;;;;;16.23;13.37;;;1.20;99.90;;;;;;5069453;28;20483;-72
2023/01/19 02:41:02;;;;;;;17.37;15.63;;;1.30;99.90;;;;;;5066879;28;20504;-71
2023/01/19 02:43:30;;;;;;;13.23;11.97;;;1.30;99.90;;;;;;5067635;28;20494;-71
2023/01/19 02:45:58;;;;;;;17.27;14.53;;;1.30;99.90;;;;;;5067213;28;20829;-73
2023/01/19 02:48:24;;;;;;;15.87;14.23;;;1.30;99.90;;;;;;5071406;28;20478;-71
2023/01/19 02:50:54;;;;;;;14.77;13.30;;;1.40;99.90;;;;;;5074842;28;20524;-72
2023/01/19 02:53:53;;;;;;;18.67;15.77;;;1.40;99.90;;;;;;5068197;28;20466;-70
2023/01/19 02:56:38;;;;;;;15.37;13.90;;;1.40;99.90;;;;;;5067098;28;20617;-70
2023/01/19 02:59:13;;;;;;;17.53;14.00;;;1.40;99.90;;;;;;5061441;28;20497;-71
2023/01/19 03:01:52;;;;;;;19.23;14.17;;;1.40;99.90;;;;;;5068680;28;20466;-72
2023/01/19 03:04:26;;;;;;;29.70;16.07;;;1.40;99.90;;;;;;5057541;28;20493;-69
2023/01/19 03:07:00;;;;;;;14.03;12.73;;;1.40;99.90;;;;;;5071161;28;20454;-71
2023/01/19 03:09:32;;;;;;;18.60;14.60;;;1.40;99.90;;;;;;5066758;28;20520;-70
2023/01/19 03:12:07;;;;;;;17.80;14.47;;;1.40;99.90;;;;;;5067558;28;20562;-73
2023/01/19 03:14:42;;;;;;;17.90;14.80;;;1.50;99.90;;;;;;5071195;28;20500;-74
2023/01/19 03:17:10;;;;;;;21.63;15.10;;;1.50;99.90;;;;;;5068016;28;20458;-73
2023/01/19 03:19:41;;;;;;;14.67;13.40;;;1.50;99.90;;;;;;5070019;28;20463;-71
2023/01/19 03:22:11;;;;;;;14.27;12.67;;;1.50;99.90;;;;;;5065522;28;20728;-70
2023/01/19 03:24:42;;;;;;;15.03;13.53;;;1.60;99.90;;;;;;5066539;28;20525;-72
2023/01/19 03:27:12;;;;;;;14.30;12.70;;;1.60;99.90;;;;;;5075452;28;20972;-70
2023/01/19 03:29:43;;;;;;;14.13;12.73;;;1.60;99.90;;;;;;5076589;28;20987;-71
2023/01/19 03:32:13;;;;;;;20.00;14.03;;;1.60;99.90;;;;;;5070354;28;20968;-70
2023/01/19 03:34:42;;;;;;;14.97;13.57;;;1.70;99.90;;;;;;5068848;28;20466;-72
2023/01/19 03:37:11;;;;;;;16.17;14.57;;;1.70;99.90;;;;;;5072252;28;20461;-72
2023/01/19 03:39:38;;;;;;;16.73;15.03;;;1.70;99.90;;;;;;5072714;28;20593;-72
2023/01/19 03:42:09;;;;;;;16.67;14.90;;;1.80;99.90;;;;;;5074891;28;20462;-71
2023/01/19 03:44:40;;;;;;;15.97;14.37;;;1.80;99.90;;;;;;5074903;28;20460;-70
2023/01/19 03:47:08;;;;;;;16.53;14.93;;;1.80;99.90;;;;;;5071018;28;20463;-71
2023/01/19 03:49:36;;;;;;;22.37;15.20;;;1.90;99.90;;;;;;5075204;28;20459;-70
2023/01/19 03:52:04;;;;;;;16.97;14.53;;;1.90;99.90;;;;;;5066386;28;20485;-70
2023/01/19 03:54:31;;;;;;;15.00;13.60;;;2.00;99.90;;;;;;5077853;28;20512;-71
2023/01/19 03:56:58;;;;;;;15.13;13.77;;;2.00;99.90;;;;;;5079595;28;20458;-70
2023/01/19 03:59:25;;;;;;;17.60;15.70;;;2.00;99.90;;;;;;5072238;28;21009;-71
2023/01/19 04:01:53;;;;;;;15.80;14.40;;;2.00;99.90;;;;;;5066345;28;20821;-71
2023/01/19 04:04:21;;;;;;;16.10;14.40;;;2.00;99.90;;;;;;5075387;28;20464;-68
2023/01/19 04:06:47;;;;;;;19.40;13.77;;;2.00;99.90;;;;;;5068832;28;21063;-69
2023/01/19 04:09:14;;;;;;;18.20;14.97;;;2.00;99.90;;;;;;5083966;28;20469;-69
2023/01/19 04:11:42;;;;;;;21.93;15.20;;;2.10;99.90;;;;;;5072891;28;20972;-69
2023/01/19 04:14:09;;;;;;;17.60;14.20;;;2.10;99.90;;;;;;5075679;28;20966;-72
2023/01/19 04:16:36;;;;;;;18.67;15.43;;;2.10;99.90;;;;;;5071073;28;21028;-70
2023/01/19 04:19:04;;;;;;;15.30;13.77;;;2.10;99.90;;;;;;5069242;28;20486;-71
2023/01/19 04:21:30;;;;;;;18.20;15.67;;;2.10;99.90;;;;;;5067937;28;20475;-69
2023/01/19 04:23:58;;;;;;;14.90;13.60;;;2.10;99.90;;;;;;5077757;28;20474;-70
2023/01/19 04:26:26;;;;;;;16.23;14.70;;;2.10;99.90;;;;;;5078034;28;20462;-71
2023/01/19 04:28:53;;;;;;;15.27;13.57;;;2.10;99.90;;;;;;5074080;28;20506;-68
2023/01/19 04:31:21;;;;;;;16.30;14.37;;;2.10;99.90;;;;;;5069491;28;20462;-71
2023/01/19 04:33:48;;;;;;;18.70;15.20;;;2.10;99.90;;;;;;5075865;28;21019;-70
2023/01/19 04:36:16;;;;;;;19.80;17.70;;;2.10;99.90;;;;;;5069979;28;20459;-68
2023/01/19 04:38:45;;;;;;;18.60;16.93;;;2.10;99.90;;;;;;5075947;28;20811;-69
2023/01/19 04:41:12;;;;;;;21.40;19.57;;;2.00;99.90;;;;;;5078375;28;20495;-69
2023/01/19 04:43:39;;;;;;;24.80;22.50;;;1.80;99.90;;;;;;5071135;28;20484;-69
2023/01/19 04:46:06;;;;;;;27.40;24.90;;;1.80;99.90;;;;;;5071968;28;20463;-68
2023/01/19 04:48:34;;;;;;;41.17;32.90;;;1.70;99.90;;;;;;5065564;28;20524;-68
2023/01/19 04:51:00;;;;;;;34.30;24.90;;;1.60;99.90;;;;;;5065752;28;20470;-69
2023/01/19 04:53:28;;;;;;;27.90;25.20;;;1.50;99.90;;;;;;5074596;28;20478;-68
2023/01/19 04:55:55;;;;;;;26.60;23.80;;;1.50;99.90;;;;;;5073491;28;20904;-69
2023/01/19 04:58:22;;;;;;;27.30;24.13;;;1.40;99.90;;;;;;5074521;28;20486;-69
2023/01/19 05:00:50;;;;;;;25.30;23.10;;;1.30;99.90;;;;;;5067926;28;20475;-68
2023/01/19 05:03:18;;;;;;;40.57;23.90;;;1.30;99.90;;;;;;5070656;28;20458;-69
2023/01/19 05:05:44;;;;;;;37.47;24.80;;;1.10;99.90;;;;;;5074658;28;20468;-69
2023/01/19 05:08:11;;;;;;;35.97;23.90;;;1.00;99.90;;;;;;5065635;28;20466;-69
2023/01/19 05:10:41;;;;;;;45.93;24.90;;;0.80;99.90;;;;;;5067649;28;20474;-69
2023/01/19 05:13:07;;;;;;;25.60;22.87;;;0.80;99.90;;;;;;5076900;28;20862;-69
2023/01/19 05:15:34;;;;;;;43.10;24.80;;;0.80;99.90;;;;;;5073353;28;20829;-69
2023/01/19 05:18:01;;;;;;;46.30;23.00;;;0.80;99.90;;;;;;5064950;28;21024;-69
2023/01/19 05:20:28;;;;;;;69.10;25.53;;;0.80;99.90;;;;;;5071628;28;20558;-69
2023/01/19 05:22:55;;;;;;;25.47;21.80;;;0.80;99.90;;;;;;5075724;28;20478;-69
2023/01/19 05:25:22;;;;;;;24.97;22.70;;;0.70;99.90;;;;;;5072507;28;20763;-69
2023/01/19 05:27:50;;;;;;;35.73;23.40;;;0.70;99.90;;;;;;5072777;28;20771;-70
2023/01/19 05:30:18;;;;;;;24.27;21.70;;;0.70;99.90;;;;;;5070539;28;20577;-68
2023/01/19 05:32:45;;;;;;;30.60;22.93;;;0.80;99.90;;;;;;5069659;28;20862;-69
2023/01/19 05:35:13;;;;;;;21.20;19.40;;;0.80;99.90;;;;;;5070764;28;20467;-68
2023/01/19 05:37:39;;;;;;;36.73;22.20;;;0.80;99.90;;;;;;5069046;28;20549;-69
2023/01/19 05:40:08;;;;;;;21.97;20.10;;;0.70;99.90;;;;;;5071906;28;20485;-69
2023/01/19 05:42:36;;;;;;;21.77;19.47;;;0.70;99.90;;;;;;5069408;28;20470;-70
2023/01/19 05:45:05;;;;;;;23.90;17.70;;;0.70;99.90;;;;;;5074796;28;20860;-69
2023/01/19 05:47:32;;;;;;;17.53;15.97;;;0.70;99.90;;;;;;5066068;28;20845;-69
2023/01/19 05:49:58;;;;;;;19.43;17.57;;;0.70;99.90;;;;;;5067631;28;20485;-70
2023/01/19 05:52:25;;;;;;;24.70;17.53;;;0.70;99.90;;;;;;5074347;28;20957;-70
2023/01/19 05:54:53;;;;;;;22.10;17.90;;;0.70;99.90;;;;;;5077450;28;20876;-71
2023/01/19 05:57:20;;;;;;;20.07;18.37;;;0.80;99.90;;;;;;5072047;28;20462;-70
2023/01/19 05:59:48;;;;;;;26.87;24.27;;;0.70;99.90;;;;;;5066984;28;20853;-71
2023/01/19 06:02:16;;;;;;;19.20;17.23;;;0.80;99.90;;;;;;5066474;28;20466;-71
2023/01/19 06:04:43;;;;;;;19.30;17.80;;;0.70;99.90;;;;;;5069388;28;20463;-72
2023/01/19 06:07:10;;;;;;;19.80;17.70;;;0.70;99.90;;;;;;5079478;28;20523;-71
2023/01/19 06:09:37;;;;;;;17.97;16.73;;;0.70;99.90;;;;;;5070302;28;20473;-71
2023/01/19 06:12:04;;;;;;;18.37;16.23;;;0.70;99.90;;;;;;5072784;28;20508;-71
2023/01/19 06:14:32;;;;;;;19.07;17.77;;;0.70;99.90;;;;;;5067124;28;20469;-70
2023/01/19 06:16:59;;;;;;;17.47;16.40;;;0.60;99.90;;;;;;5068901;28;20876;-72
2023/01/19 06:19:27;;;;;;;17.67;16.00;;;0.60;99.90;;;;;;5068124;28;20498;-71
2023/01/19 06:21:54;;;;;;;19.53;17.60;;;0.60;99.90;;;;;;5072787;28;20461;-71
2023/01/19 06:24:21;;;;;;;18.50;16.97;;;0.60;99.90;;;;;;5069111;28;20462;-71
2023/01/19 06:26:49;;;;;;;18.23;16.87;;;0.60;99.90;;;;;;5070871;28;20491;-72
2023/01/19 06:29:17;;;;;;;20.10;18.40;;;0.60;99.90;;;;;;5069217;28;20556;-72
2023/01/19 06:31:44;;;;;;;19.07;17.17;;;0.70;99.90;;;;;;5073536;28;20459;-71
2023/01/19 06:34:11;;;;;;;20.27;18.57;;;0.60;99.90;;;;;;5068685;28;20516;-71
2023/01/19 06:36:39;;;;;;;19.40;18.00;;;0.70;99.90;;;;;;5070146;28;20678;-72
2023/01/19 06:39:06;;;;;;;17.63;16.20;;;0.70;99.90;;;;;;5065330;28;20493;-72
2023/01/19 06:41:34;;;;;;;19.07;17.30;;;0.70;99.90;;;;;;5070681;28;20527;-72
2023/01/19 06:44:01;;;;;;;20.00;18.47;;;0.70;99.90;;;;;;5069340;28;21042;-72
2023/01/19 06:46:28;;;;;;;18.27;16.57;;;0.70;99.90;;;;;;5076339;28;20511;-71
2023/01/19 06:48:55;;;;;;;17.53;16.47;;;0.80;99.90;;;;;;5070036;28;20899;-72
2023/01/19 06:51:23;;;;;;;23.60;21.30;;;0.80;99.90;;;;;;5065870;28;20466;-71
2023/01/19 06:53:51;;;;;;;21.80;19.90;;;0.80;99.90;;;;;;5068323;28;20520;-71
2023/01/19 06:56:18;;;;;;;20.17;18.23;;;0.80;99.90;;;;;;5074394;28;20466;-71
2023/01/19 06:58:47;;;;;;;20.70;18.67;;;0.80;99.90;;;;;;5062945;28;20493;-71
2023/01/19 07:01:14;;;;;;;36.20;28.10;;;0.80;99.90;;;;;;5068358;28;20544;-70
2023/01/19 07:03:41;;;;;;;23.03;20.83;;;0.80;99.90;;;;;;5067546;28;20512;-70
2023/01/19 07:06:08;;;;;;;26.03;22.30;;;0.80;99.90;;;;;;5075036;28;20457;-70
2023/01/19 07:08:37;;;;;;;19.37;17.60;;;0.80;99.90;;;;;;5067707;28;20845;-71
2023/01/19 07:11:06;;;;;;;21.33;19.23;;;0.80;99.90;;;;;;5071140;28;20462;-71
2023/01/19 07:13:34;;;;;;;36.77;18.80;;;0.80;99.90;;;;;;5069817;28;20806;-71
2023/01/19 07:16:05;;;;;;;20.33;18.80;;;0.90;99.90;;;;;;5061365;28;20463;-70
2023/01/19 07:18:31;;;;;;;21.40;19.40;;;0.90;99.90;;;;;;5062099;28;20507;-70
2023/01/19 07:20:58;;;;;;;20.57;18.93;;;0.90;99.90;;;;;;5063817;28;20455;-70
2023/01/19 07:23:29;;;;;;;21.53;19.73;;;0.90;99.90;;;;;;5068275;28;20998;-70
2023/01/19 07:25:56;;;;;;;19.47;17.87;;;0.90;99.90;;;;;;5069536;28;20461;-70
2023/01/19 07:28:24;;;;;;;20.97;19.17;;;0.90;99.90;;;;;;5068585;28;21020;-70
2023/01/19 07:30:52;;;;;;;20.10;18.60;;;0.90;99.90;;;;;;5059335;28;20854;-70
2023/01/19 07:33:20;;;;;;;21.10;19.40;;;0.90;99.90;;;;;;5073091;28;20467;-69
2023/01/19 07:35:48;;;;;;;21.47;19.53;;;0.90;99.90;;;;;;5067991;28;22011;-70
2023/01/19 07:38:16;;;;;;;23.30;21.23;;;0.90;99.90;;;;;;5066892;28;20832;-70
2023/01/19 07:40:45;;;;;;;22.97;20.80;;;0.90;99.90;;;;;;5066040;28;20577;-70
2023/01/19 07:43:12;;;;;;;23.50;21.10;;;0.90;99.90;;;;;;5068049;28;20520;-70
2023/01/19 07:45:40;;;;;;;24.63;22.40;;;0.90;99.90;;;;;;5068243;28;20466;-69
2023/01/19 07:48:07;;;;;;;56.77;31.00;;;0.90;99.90;;;;;;5062782;28;20497;-69
2023/01/19 07:50:34;;;;;;;451.17;119.77;;;1.00;99.90;;;;;;5062504;28;20857;-70
2023/01/19 07:53:05;;;;;;;165.23;57.90;;;1.00;99.90;;;;;;5065098;28;20463;-69
2023/01/19 07:55:32;;;;;;;28.70;24.70;;;0.90;99.90;;;;;;5065275;28;21309;-69
2023/01/19 07:57:59;;;;;;;40.67;29.63;;;0.90;99.90;;;;;;5065745;28;20961;-70
2023/01/19 08:00:26;;;;;;;41.80;31.03;;;0.90;99.90;;;;;;5064213;28;20491;-70
2023/01/19 08:03:00;;;;;;;21.97;19.90;;;1.00;99.90;;;;;;5064083;28;21165;-69
2023/01/19 08:05:28;;;;;;;21.60;19.70;;;1.00;99.90;;;;;;5063071;28;20477;-70
2023/01/19 08:07:56;;;;;;;19.33;16.77;;;1.00;99.90;;;;;;5069993;28;20586;-70
2023/01/19 08:10:25;;;;;;;18.83;16.73;;;1.10;99.90;;;;;;5059641;28;20481;-70
2023/01/19 08:12:52;;;;;;;20.23;17.50;;;1.10;99.90;;;;;;5068528;28;20503;-69
2023/01/19 08:15:21;;;;;;;17.50;15.70;;;1.10;99.90;;;;;;5064100;28;20470;-70
2023/01/19 08:17:56;;;;;;;18.53;16.90;;;1.10;99.90;;;;;;5071933;28;20551;-70
2023/01/19 08:20:23;;;;;;;18.70;16.33;;;1.10;99.90;;;;;;5068407;28;20922;-69
2023/01/19 08:22:50;;;;;;;20.23;18.13;;;1.10;99.90;;;;;;5067970;28;20995;-71
2023/01/19 08:25:17;;;;;;;20.47;16.00;;;1.10;99.90;;;;;;5070674;28;20464;-70
2023/01/19 08:27:44;;;;;;;22.83;17.37;;;1.10;99.90;;;;;;5068692;28;20451;-69
2023/01/19 08:30:11;;;;;;;29.50;19.63;;;1.20;99.90;;;;;;5066117;28;20500;-70
2023/01/19 08:32:38;;;;;;;24.63;18.73;;;1.20;99.90;;;;;;5068962;28;20462;-70
2023/01/19 08:35:08;;;;;;;23.90;18.27;;;1.10;99.90;;;;;;5076977;28;20465;-70
2023/01/19 08:37:35;;;;;;;30.13;19.90;;;1.10;99.90;;;;;;5066704;28;20473;-70
2023/01/19 08:40:02;;;;;;;30.80;20.40;;;1.10;99.90;;;;;;5071776;28;20500;-70
2023/01/19 08:42:29;;;;;;;32.13;22.63;;;1.10;99.90;;;;;;5073280;28;20468;-70
2023/01/19 08:44:57;;;;;;;17.50;15.70;;;1.10;99.90;;;;;;5070914;28;20515;-69
2023/01/19 08:47:23;;;;;;;35.33;21.87;;;1.20;99.90;;;;;;5064621;28;20482;-69
2023/01/19 08:49:50;;;;;;;47.73;22.67;;;1.20;99.90;;;;;;5069020;28;20486;-70
2023/01/19 08:52:20;;;;;;;28.90;18.97;;;1.30;99.90;;;;;;5065464;28;20466;-70
2023/01/19 08:54:46;;;;;;;34.13;22.20;;;1.20;99.90;;;;;;5071726;28;20470;-70
2023/01/19 08:57:14;;;;;;;31.23;22.73;;;1.30;99.90;;;;;;5071399;28;20511;-70
2023/01/19 08:59:41;;;;;;;33.10;20.73;;;1.30;99.90;;;;;;5066524;28;21164;-69
2023/01/19 09:02:10;;;;;;;34.20;20.87;;;1.20;99.90;;;;;;5062795;28;20463;-70
2023/01/19 09:04:36;;;;;;;35.87;23.73;;;1.20;99.90;;;;;;5069903;28;20463;-71
2023/01/19 09:07:03;;;;;;;37.03;23.60;;;1.20;99.90;;;;;;5067647;28;20825;-70
2023/01/19 09:09:31;;;;;;;46.43;25.07;;;1.10;99.90;;;;;;5057044;28;20462;-69
2023/01/19 09:11:59;;;;;;;37.77;23.97;;;1.10;99.90;;;;;;5058026;28;20458;-70
2023/01/19 09:14:27;;;;;;;36.87;23.43;;;1.20;99.90;;;;;;5055427;28;21892;-70
2023/01/19 09:16:55;;;;;;;32.53;23.83;;;1.20;99.90;;;;;;5065762;28;20459;-70
2023/01/19 09:19:22;;;;;;;42.07;25.90;;;1.30;99.90;;;;;;5063040;28;20490;-69
2023/01/19 09:21:49;;;;;;;36.77;23.43;;;1.30;99.90;;;;;;5053626;28;21008;-70
2023/01/19 09:24:17;;;;;;;35.70;24.00;;;1.30;99.90;;;;;;5058185;28;20468;-71
2023/01/19 09:26:45;;;;;;;34.70;23.13;;;1.30;99.90;;;;;;5061567;28;20555;-70
2023/01/19 09:29:12;;;;;;;36.23;24.30;;;1.40;99.90;;;;;;5060050;28;21077;-70
2023/01/19 09:31:39;;;;;;;33.33;23.97;;;1.50;99.90;;;;;;5058723;28;20960;-70
2023/01/19 09:34:07;;;;;;;40.27;26.13;;;1.40;99.90;;;;;;5063990;28;20467;-70
2023/01/19 09:36:33;;;;;;;40.80;26.00;;;1.50;99.90;;;;;;5063234;28;20521;-69
2023/01/19 09:39:00;;;;;;;44.73;26.40;;;1.50;99.90;;;;;;5062977;28;20462;-70
2023/01/19 09:41:27;;;;;;;35.07;24.03;;;1.50;99.90;;;;;;5062098;28;20462;-70
2023/01/19 09:43:59;;;;;;;37.47;24.30;;;1.50;99.90;;;;;;5067925;28;21007;-69
2023/01/19 09:46:33;;;;;;;48.33;27.43;;;1.50;99.90;;;;;;5067055;28;20879;-70
2023/01/19 09:49:05;;;;;;;45.60;25.30;;;1.50;99.90;;;;;;5065326;28;20532;-70
2023/01/19 09:51:36;;;;;;;39.37;24.33;;;1.50;99.90;;;;;;5061476;28;20519;-70
2023/01/19 09:54:09;;;;;;;50.17;25.10;;;1.60;99.90;;;;;;5065780;28;20474;-68
2023/01/19 09:56:36;;;;;;;39.27;25.70;;;1.60;99.90;;;;;;5060169;28;20493;-68
2023/01/19 09:59:17;;;;;;;39.03;25.50;;;1.60;99.90;;;;;;5063666;28;21067;-69
2023/01/19 10:01:56;;;;;;;41.13;22.00;;;1.70;99.90;;;;;;5065693;28;20836;-69
2023/01/19 10:04:28;;;;;;;34.47;22.87;;;1.70;99.90;;;;;;5063143;28;20486;-71
2023/01/19 10:07:05;;;;;;;43.53;24.93;;;1.70;99.90;;;;;;5058656;28;20459;-71
2023/01/19 10:09:36;;;;;;;37.50;23.00;;;1.70;99.90;;;;;;5062843;28;20471;-70
2023/01/19 10:12:12;;;;;;;37.83;22.90;;;1.70;99.90;;;;;;5059596;28;20470;-70
2023/01/19 10:14:46;;;;;;;45.53;25.30;;;1.80;99.90;;;;;;5055787;28;20463;-71
2023/01/19 10:17:23;;;;;;;52.00;26.23;;;1.80;99.90;;;;;;5059330;28;20465;-72
2023/01/19 10:19:53;;;;;;;49.00;25.90;;;1.80;99.90;;;;;;5062880;28;20487;-70
2023/01/19 10:22:22;;;;;;;37.37;23.23;;;1.80;99.90;;;;;;5059807;28;20470;-71
2023/01/19 10:24:53;;;;;;;36.30;20.80;;;1.80;99.90;;;;;;5062594;28;20977;-71
2023/01/19 10:27:26;;;;;;;52.00;24.77;;;1.90;99.90;;;;;;5061451;28;20457;-70
2023/01/19 10:29:55;;;;;;;49.73;25.37;;;2.00;99.90;;;;;;5058727;28;20502;-71
2023/01/19 10:32:24;;;;;;;42.17;24.00;;;2.00;99.90;;;;;;5057754;28;20509;-72
2023/01/19 10:34:52;;;;;;;48.23;24.27;;;2.10;99.90;;;;;;5060167;28;20450;-69
2023/01/19 10:37:29;;;;;;;55.50;27.30;;;2.10;99.90;;;;;;5063057;28;20461;-71
2023/01/19 10:39:58;;;;;;;46.03;24.70;;;2.20;99.90;;;;;;5070696;28;20585;-71
2023/01/19 10:42:29;;;;;;;46.57;23.13;;;2.10;99.90;;;;;;5057242;28;20478;-70
2023/01/19 10:44:57;;;;;;;38.73;20.80;;;2.10;99.90;;;;;;5058371;28;20467;-70
2023/01/19 10:47:31;;;;;;;54.63;24.10;;;2.00;99.90;;;;;;5064547;28;21012;-71
2023/01/19 10:49:58;;;;;;;47.80;21.57;;;2.00;99.90;;;;;;5061226;28;20547;-70
2023/01/19 10:52:30;;;;;;;38.30;25.67;;;2.10;99.90;;;;;;5061446;28;20467;-71
2023/01/19 10:54:58;;;;;;;39.57;23.00;;;2.20;99.90;;;;;;5067056;28;20814;-69
2023/01/19 10:57:29;;;;;;;44.17;23.57;;;2.40;99.90;;;;;;5062924;28;20464;-71
2023/01/19 10:59:58;;;;;;;40.83;22.33;;;2.50;99.90;;;;;;5059840;28;20490;-70
2023/01/19 11:02:26;;;;;;;40.50;23.10;;;2.50;99.90;;;;;;5069342;28;20470;-68
2023/01/19 11:04:55;;;;;;;45.47;23.67;;;2.50;99.90;;;;;;5071492;28;20964;-70
2023/01/19 11:07:24;;;;;;;48.33;23.10;;;2.50;99.90;;;;;;5062597;28;20987;-70
2023/01/19 11:10:21;;;;;;;39.97;25.90;;;2.40;99.90;;;;;;5064424;28;20462;-69
2023/01/19 11:13:00;;;;;;;39.53;23.47;;;2.30;99.90;;;;;;5066657;28;20474;-69
2023/01/19 11:15:33;;;;;;;37.83;24.17;;;2.40;99.90;;;;;;5052147;28;20588;-69
2023/01/19 11:18:02;;;;;;;37.43;23.17;;;2.40;99.90;;;;;;5063014;28;20455;-70
2023/01/19 11:20:33;;;;;;;38.30;23.40;;;2.40;99.90;;;;;;5062517;28;20483;-71
2023/01/19 11:23:17;;;;;;;50.13;25.00;;;2.40;99.90;;;;;;5061886;28;20459;-71
2023/01/19 11:25:47;;;;;;;35.00;23.43;;;2.40;99.90;;;;;;5062020;28;20893;-70
2023/01/19 11:28:18;;;;;;;46.77;25.53;;;2.50;99.90;;;;;;5065326;28;20961;-70
2023/01/19 11:30:56;;;;;;;59.77;26.37;;;2.50;99.90;;;;;;5063653;28;20471;-71
2023/01/19 11:33:26;;;;;;;40.53;27.07;;;2.50;99.90;;;;;;5063170;28;20773;-69
2023/01/19 11:36:03;;;;;;;48.07;26.70;;;2.40;99.90;;;;;;5066386;28;20462;-72
2023/01/19 11:38:30;;;;;;;44.37;24.90;;;2.40;99.90;;;;;;5064339;28;20454;-72
2023/01/19 11:40:58;;;;;;;47.27;25.97;;;2.50;99.90;;;;;;5055989;28;20920;-70
2023/01/19 11:43:28;;;;;;;43.23;24.73;;;2.60;99.90;;;;;;5066697;28;20735;-71
2023/01/19 11:45:57;;;;;;;43.13;24.33;;;2.60;99.90;;;;;;5064009;28;21025;-71
2023/01/19 11:48:29;;;;;;;51.63;22.83;;;2.70;99.90;;;;;;5063799;28;21100;-72
2023/01/19 11:50:59;;;;;;;41.77;25.37;;;2.70;99.90;;;;;;5059412;28;20830;-71
2023/01/19 11:53:32;;;;;;;45.70;24.20;;;2.80;99.90;;;;;;5066991;28;20493;-70
2023/01/19 11:56:03;;;;;;;45.17;26.33;;;2.90;99.90;;;;;;5063247;28;20455;-70
2023/01/19 11:58:31;;;;;;;45.50;24.07;;;2.90;99.90;;;;;;5069558;28;20466;-71
2023/01/19 12:01:04;;;;;;;45.33;25.20;;;2.80;99.90;;;;;;5061721;28;20490;-70
2023/01/19 12:03:35;;;;;;;52.70;25.07;;;2.70;99.90;;;;;;5062110;28;20462;-72
2023/01/19 12:06:06;;;;;;;46.00;25.50;;;2.60;99.90;;;;;;5067957;28;20474;-70
2023/01/19 12:08:37;;;;;;;39.00;26.30;;;2.60;99.90;;;;;;5068957;28;20512;-71
2023/01/19 12:11:05;;;;;;;40.33;24.37;;;2.50;99.90;;;;;;5069349;28;20466;-70
2023/01/19 12:13:34;;;;;;;34.10;21.10;;;2.60;99.90;;;;;;5071173;28;20469;-71
2023/01/19 12:16:07;;;;;;;52.83;29.10;;;2.60;99.90;;;;;;5059248;28;20776;-70
2023/01/19 12:18:40;;;;;;;47.87;24.67;;;2.60;99.90;;;;;;5068179;28;20834;-70
2023/01/19 12:21:07;;;;;;;40.17;23.57;;;2.70;99.90;;;;;;5059142;28;21065;-69
2023/01/19 12:23:51;;;;;;;39.30;24.37;;;2.60;99.90;;;;;;5072781;28;20458;-70
2023/01/19 12:26:27;;;;;;;32.93;22.53;;;2.70;99.90;;;;;;5066372;28;20797;-69
2023/01/19 12:28:59;;;;;;;38.43;25.10;;;2.60;99.90;;;;;;5063416;28;20553;-69
2023/01/19 12:31:28;;;;;;;38.03;26.23;;;2.60;99.90;;;;;;5064983;28;20469;-69
2023/01/19 12:33:55;;;;;;;36.43;26.20;;;2.50;99.90;;;;;;5065921;28;20556;-69
2023/01/19 12:36:39;;;;;;;36.07;24.70;;;2.50;99.90;;;;;;5063429;28;20504;-70
2023/01/19 12:39:18;;;;;;;38.93;28.30;;;2.30;99.90;;;;;;5058010;28;20930;-70
2023/01/19 12:41:47;;;;;;;42.17;27.07;;;2.30;99.90;;;;;;5064806;28;20490;-70
2023/01/19 12:44:26;;;;;;;40.33;27.87;;;2.30;99.90;;;;;;5069120;28;20504;-69
2023/01/19 12:47:02;;;;;;;38.77;23.73;;;2.40;99.90;;;;;;5067089;28;20463;-70
2023/01/19 12:49:33;;;;;;;47.73;27.80;;;2.40;99.90;;;;;;5066864;28;20469;-69
2023/01/19 12:52:26;;;;;;;38.50;26.40;;;2.50;99.90;;;;;;5068672;28;20469;-69